sensor_id;sensor_type;location;lat;lon;timestamp;P1;durP1;ratioP1;P2;durP2;ratioP2
58470;SDS011;44258;51.288;12.068;2023-02-28T00:01:23;8.35;;;2.90;;
58470;SDS011;44258;51.288;12.068;2023-02-28T00:03:50;7.82;;;3.08;;
58470;SDS011;44258;51.288;12.068;2023-02-28T00:06:17;9.57;;;3.28;;
58470;SDS011;44258;51.288;12.068;2023-02-28T00:08:47;7.05;;;2.88;;
58470;SDS011;44258;51.288;12.068;2023-02-28T00:11:15;7.65;;;3.17;;
58470;SDS011;44258;51.288;12.068;2023-02-28T00:13:43;7.82;;;3.00;;
58470;SDS011;44258;51.288;12.068;2023-02-28T00:16:12;5.30;;;2.20;;
58470;SDS011;44258;51.288;12.068;2023-02-28T00:18:40;5.68;;;2.45;;
58470;SDS011;44258;51.288;12.068;2023-02-28T00:21:07;7.45;;;2.90;;
58470;SDS011;44258;51.288;12.068;2023-02-28T00:23:34;9.48;;;3.03;;
58470;SDS011;44258;51.288;12.068;2023-02-28T00:26:00;7.47;;;2.78;;
58470;SDS011;44258;51.288;12.068;2023-02-28T00:28:29;8.32;;;2.88;;
58470;SDS011;44258;51.288;12.068;2023-02-28T00:30:56;7.88;;;2.70;;
58470;SDS011;44258;51.288;12.068;2023-02-28T00:33:25;7.55;;;2.63;;
58470;SDS011;44258;51.288;12.068;2023-02-28T00:36:01;7.15;;;2.63;;
58470;SDS011;44258;51.288;12.068;2023-02-28T00:38:29;8.23;;;2.92;;
58470;SDS011;44258;51.288;12.068;2023-02-28T00:40:56;7.30;;;2.72;;
58470;SDS011;44258;51.288;12.068;2023-02-28T00:43:23;6.40;;;2.90;;
58470;SDS011;44258;51.288;12.068;2023-02-28T00:45:51;8.20;;;2.55;;
58470;SDS011;44258;51.288;12.068;2023-02-28T00:48:18;7.30;;;2.92;;
58470;SDS011;44258;51.288;12.068;2023-02-28T00:50:44;9.55;;;3.17;;
58470;SDS011;44258;51.288;12.068;2023-02-28T00:53:14;7.55;;;2.97;;
58470;SDS011;44258;51.288;12.068;2023-02-28T00:55:41;7.20;;;2.72;;
58470;SDS011;44258;51.288;12.068;2023-02-28T00:58:07;6.72;;;2.85;;
58470;SDS011;44258;51.288;12.068;2023-02-28T01:00:34;8.13;;;3.40;;
58470;SDS011;44258;51.288;12.068;2023-02-28T01:03:02;8.07;;;2.83;;
58470;SDS011;44258;51.288;12.068;2023-02-28T01:05:28;6.78;;;3.05;;
58470;SDS011;44258;51.288;12.068;2023-02-28T01:07:55;5.45;;;2.30;;
58470;SDS011;44258;51.288;12.068;2023-02-28T01:10:21;6.20;;;2.67;;
58470;SDS011;44258;51.288;12.068;2023-02-28T01:12:48;9.10;;;2.80;;
58470;SDS011;44258;51.288;12.068;2023-02-28T01:15:14;9.77;;;3.15;;
58470;SDS011;44258;51.288;12.068;2023-02-28T01:17:41;7.05;;;3.05;;
58470;SDS011;44258;51.288;12.068;2023-02-28T01:20:10;6.45;;;2.97;;
58470;SDS011;44258;51.288;12.068;2023-02-28T01:22:39;6.85;;;2.83;;
58470;SDS011;44258;51.288;12.068;2023-02-28T01:25:06;6.25;;;2.78;;
58470;SDS011;44258;51.288;12.068;2023-02-28T01:27:33;6.43;;;2.70;;
58470;SDS011;44258;51.288;12.068;2023-02-28T01:30:00;6.85;;;2.97;;
58470;SDS011;44258;51.288;12.068;2023-02-28T01:32:29;7.07;;;3.10;;
58470;SDS011;44258;51.288;12.068;2023-02-28T01:34:56;6.47;;;2.63;;
58470;SDS011;44258;51.288;12.068;2023-02-28T01:37:26;7.68;;;3.30;;
58470;SDS011;44258;51.288;12.068;2023-02-28T01:39:53;8.73;;;3.05;;
58470;SDS011;44258;51.288;12.068;2023-02-28T01:42:19;7.30;;;2.95;;
58470;SDS011;44258;51.288;12.068;2023-02-28T01:45:07;7.95;;;3.22;;
58470;SDS011;44258;51.288;12.068;2023-02-28T01:47:45;9.93;;;3.22;;
58470;SDS011;44258;51.288;12.068;2023-02-28T01:50:18;8.77;;;3.30;;
58470;SDS011;44258;51.288;12.068;2023-02-28T01:52:48;9.07;;;3.08;;
58470;SDS011;44258;51.288;12.068;2023-02-28T01:55:15;7.85;;;3.08;;
58470;SDS011;44258;51.288;12.068;2023-02-28T01:57:45;8.90;;;3.28;;
58470;SDS011;44258;51.288;12.068;2023-02-28T02:00:15;6.85;;;2.75;;
58470;SDS011;44258;51.288;12.068;2023-02-28T02:02:44;7.38;;;3.28;;
58470;SDS011;44258;51.288;12.068;2023-02-28T02:05:14;10.57;;;3.63;;
58470;SDS011;44258;51.288;12.068;2023-02-28T02:07:43;9.23;;;3.40;;
58470;SDS011;44258;51.288;12.068;2023-02-28T02:10:16;8.27;;;3.47;;
58470;SDS011;44258;51.288;12.068;2023-02-28T02:12:53;9.65;;;3.55;;
58470;SDS011;44258;51.288;12.068;2023-02-28T02:15:32;7.45;;;3.33;;
58470;SDS011;44258;51.288;12.068;2023-02-28T02:18:02;7.68;;;3.40;;
58470;SDS011;44258;51.288;12.068;2023-02-28T02:20:46;8.00;;;3.22;;
58470;SDS011;44258;51.288;12.068;2023-02-28T02:26:54;4.40;;;2.45;;
58470;SDS011;44258;51.288;12.068;2023-02-28T02:29:38;8.77;;;2.90;;
58470;SDS011;44258;51.288;12.068;2023-02-28T02:35:23;6.32;;;2.33;;
58470;SDS011;44258;51.288;12.068;2023-02-28T02:37:56;7.05;;;2.88;;
58470;SDS011;44258;51.288;12.068;2023-02-28T02:40:30;7.97;;;2.75;;
58470;SDS011;44258;51.288;12.068;2023-02-28T02:43:04;8.27;;;3.03;;
58470;SDS011;44258;51.288;12.068;2023-02-28T02:45:36;8.75;;;2.97;;
58470;SDS011;44258;51.288;12.068;2023-02-28T02:48:09;6.97;;;3.13;;
58470;SDS011;44258;51.288;12.068;2023-02-28T02:50:42;8.15;;;3.03;;
58470;SDS011;44258;51.288;12.068;2023-02-28T02:53:11;8.93;;;2.88;;
58470;SDS011;44258;51.288;12.068;2023-02-28T02:55:44;9.35;;;3.28;;
58470;SDS011;44258;51.288;12.068;2023-02-28T02:58:19;10.27;;;3.10;;
58470;SDS011;44258;51.288;12.068;2023-02-28T03:00:50;6.28;;;2.90;;
58470;SDS011;44258;51.288;12.068;2023-02-28T03:03:20;9.43;;;3.20;;
58470;SDS011;44258;51.288;12.068;2023-02-28T03:05:56;8.45;;;3.10;;
58470;SDS011;44258;51.288;12.068;2023-02-28T03:08:23;10.52;;;3.30;;
58470;SDS011;44258;51.288;12.068;2023-02-28T03:10:51;8.45;;;3.08;;
58470;SDS011;44258;51.288;12.068;2023-02-28T03:13:34;8.45;;;3.40;;
58470;SDS011;44258;51.288;12.068;2023-02-28T03:19:03;8.43;;;3.15;;
58470;SDS011;44258;51.288;12.068;2023-02-28T03:21:46;8.48;;;3.38;;
58470;SDS011;44258;51.288;12.068;2023-02-28T03:24:24;13.70;;;3.58;;
58470;SDS011;44258;51.288;12.068;2023-02-28T03:26:58;7.80;;;3.35;;
58470;SDS011;44258;51.288;12.068;2023-02-28T03:29:32;7.85;;;3.00;;
58470;SDS011;44258;51.288;12.068;2023-02-28T03:32:02;9.38;;;3.35;;
58470;SDS011;44258;51.288;12.068;2023-02-28T03:34:37;6.90;;;3.10;;
58470;SDS011;44258;51.288;12.068;2023-02-28T03:37:08;8.48;;;3.25;;
58470;SDS011;44258;51.288;12.068;2023-02-28T03:39:40;8.48;;;3.40;;
58470;SDS011;44258;51.288;12.068;2023-02-28T03:42:14;7.47;;;3.00;;
58470;SDS011;44258;51.288;12.068;2023-02-28T03:44:45;8.60;;;3.00;;
58470;SDS011;44258;51.288;12.068;2023-02-28T03:47:16;5.88;;;2.45;;
58470;SDS011;44258;51.288;12.068;2023-02-28T03:49:49;6.07;;;2.47;;
58470;SDS011;44258;51.288;12.068;2023-02-28T03:52:21;9.07;;;3.38;;
58470;SDS011;44258;51.288;12.068;2023-02-28T03:54:52;8.40;;;3.28;;
58470;SDS011;44258;51.288;12.068;2023-02-28T03:57:23;10.93;;;3.47;;
58470;SDS011;44258;51.288;12.068;2023-02-28T03:59:54;5.53;;;2.35;;
58470;SDS011;44258;51.288;12.068;2023-02-28T04:02:25;7.72;;;3.17;;
58470;SDS011;44258;51.288;12.068;2023-02-28T04:04:52;7.65;;;2.72;;
58470;SDS011;44258;51.288;12.068;2023-02-28T04:07:18;11.38;;;3.58;;
58470;SDS011;44258;51.288;12.068;2023-02-28T04:09:46;6.00;;;2.42;;
58470;SDS011;44258;51.288;12.068;2023-02-28T04:12:13;9.18;;;3.33;;
58470;SDS011;44258;51.288;12.068;2023-02-28T04:14:39;8.00;;;2.85;;
58470;SDS011;44258;51.288;12.068;2023-02-28T04:17:06;6.97;;;2.75;;
58470;SDS011;44258;51.288;12.068;2023-02-28T04:19:34;7.13;;;2.78;;
58470;SDS011;44258;51.288;12.068;2023-02-28T04:22:01;10.40;;;3.05;;
58470;SDS011;44258;51.288;12.068;2023-02-28T04:24:27;6.85;;;2.28;;
58470;SDS011;44258;51.288;12.068;2023-02-28T04:26:56;9.30;;;2.72;;
58470;SDS011;44258;51.288;12.068;2023-02-28T04:29:24;8.43;;;3.28;;
58470;SDS011;44258;51.288;12.068;2023-02-28T04:31:52;10.40;;;3.80;;
58470;SDS011;44258;51.288;12.068;2023-02-28T04:34:20;9.02;;;3.33;;
58470;SDS011;44258;51.288;12.068;2023-02-28T04:36:49;9.50;;;3.28;;
58470;SDS011;44258;51.288;12.068;2023-02-28T04:39:18;7.72;;;3.22;;
58470;SDS011;44258;51.288;12.068;2023-02-28T04:41:46;11.65;;;4.38;;
58470;SDS011;44258;51.288;12.068;2023-02-28T04:44:14;9.85;;;3.28;;
58470;SDS011;44258;51.288;12.068;2023-02-28T04:46:41;7.88;;;3.33;;
58470;SDS011;44258;51.288;12.068;2023-02-28T04:49:08;10.98;;;3.65;;
58470;SDS011;44258;51.288;12.068;2023-02-28T04:51:36;7.50;;;3.08;;
58470;SDS011;44258;51.288;12.068;2023-02-28T04:54:03;8.88;;;3.28;;
58470;SDS011;44258;51.288;12.068;2023-02-28T04:56:30;9.02;;;3.38;;
58470;SDS011;44258;51.288;12.068;2023-02-28T04:58:56;6.25;;;2.67;;
58470;SDS011;44258;51.288;12.068;2023-02-28T05:01:25;7.32;;;3.20;;
58470;SDS011;44258;51.288;12.068;2023-02-28T05:03:55;10.73;;;3.50;;
58470;SDS011;44258;51.288;12.068;2023-02-28T05:06:23;9.80;;;2.83;;
58470;SDS011;44258;51.288;12.068;2023-02-28T05:08:50;8.55;;;3.00;;
58470;SDS011;44258;51.288;12.068;2023-02-28T05:11:18;7.65;;;2.65;;
58470;SDS011;44258;51.288;12.068;2023-02-28T05:13:47;8.05;;;2.75;;
58470;SDS011;44258;51.288;12.068;2023-02-28T05:16:14;6.97;;;2.88;;
58470;SDS011;44258;51.288;12.068;2023-02-28T05:18:43;6.53;;;2.63;;
58470;SDS011;44258;51.288;12.068;2023-02-28T05:24:00;8.23;;;3.45;;
58470;SDS011;44258;51.288;12.068;2023-02-28T05:26:28;9.80;;;2.97;;
58470;SDS011;44258;51.288;12.068;2023-02-28T05:28:56;7.18;;;2.65;;
58470;SDS011;44258;51.288;12.068;2023-02-28T05:31:23;11.32;;;3.70;;
58470;SDS011;44258;51.288;12.068;2023-02-28T05:33:53;6.65;;;2.47;;
58470;SDS011;44258;51.288;12.068;2023-02-28T05:36:19;10.13;;;3.72;;
58470;SDS011;44258;51.288;12.068;2023-02-28T05:38:46;9.13;;;3.38;;
58470;SDS011;44258;51.288;12.068;2023-02-28T05:41:14;9.30;;;3.67;;
58470;SDS011;44258;51.288;12.068;2023-02-28T05:43:41;8.82;;;3.63;;
58470;SDS011;44258;51.288;12.068;2023-02-28T05:46:08;11.80;;;4.20;;
58470;SDS011;44258;51.288;12.068;2023-02-28T05:48:36;12.38;;;3.95;;
58470;SDS011;44258;51.288;12.068;2023-02-28T05:51:05;10.40;;;3.83;;
58470;SDS011;44258;51.288;12.068;2023-02-28T05:53:32;8.93;;;3.58;;
58470;SDS011;44258;51.288;12.068;2023-02-28T05:55:59;8.52;;;3.45;;
58470;SDS011;44258;51.288;12.068;2023-02-28T05:58:27;7.68;;;3.28;;
58470;SDS011;44258;51.288;12.068;2023-02-28T06:00:55;9.43;;;3.22;;
58470;SDS011;44258;51.288;12.068;2023-02-28T06:03:23;10.50;;;3.58;;
58470;SDS011;44258;51.288;12.068;2023-02-28T06:05:49;10.15;;;3.55;;
58470;SDS011;44258;51.288;12.068;2023-02-28T06:08:17;9.02;;;3.58;;
58470;SDS011;44258;51.288;12.068;2023-02-28T06:10:44;10.93;;;4.18;;
58470;SDS011;44258;51.288;12.068;2023-02-28T06:13:11;8.57;;;3.50;;
58470;SDS011;44258;51.288;12.068;2023-02-28T06:15:37;12.40;;;3.97;;
58470;SDS011;44258;51.288;12.068;2023-02-28T06:18:05;9.13;;;3.97;;
58470;SDS011;44258;51.288;12.068;2023-02-28T06:20:34;9.00;;;3.83;;
58470;SDS011;44258;51.288;12.068;2023-02-28T06:23:01;11.18;;;3.78;;
58470;SDS011;44258;51.288;12.068;2023-02-28T06:25:29;9.15;;;3.50;;
58470;SDS011;44258;51.288;12.068;2023-02-28T06:27:56;7.03;;;3.00;;
58470;SDS011;44258;51.288;12.068;2023-02-28T06:30:22;13.25;;;3.97;;
58470;SDS011;44258;51.288;12.068;2023-02-28T06:32:51;9.75;;;3.95;;
58470;SDS011;44258;51.288;12.068;2023-02-28T06:35:19;10.35;;;4.13;;
58470;SDS011;44258;51.288;12.068;2023-02-28T06:37:49;7.68;;;3.60;;
58470;SDS011;44258;51.288;12.068;2023-02-28T06:40:16;6.43;;;2.88;;
58470;SDS011;44258;51.288;12.068;2023-02-28T06:42:43;10.43;;;3.55;;
58470;SDS011;44258;51.288;12.068;2023-02-28T06:45:10;9.70;;;4.03;;
58470;SDS011;44258;51.288;12.068;2023-02-28T06:47:38;7.22;;;3.30;;
58470;SDS011;44258;51.288;12.068;2023-02-28T06:50:06;8.93;;;3.78;;
58470;SDS011;44258;51.288;12.068;2023-02-28T06:52:37;9.15;;;3.70;;
58470;SDS011;44258;51.288;12.068;2023-02-28T06:55:04;13.05;;;4.45;;
58470;SDS011;44258;51.288;12.068;2023-02-28T06:57:33;10.43;;;4.05;;
58470;SDS011;44258;51.288;12.068;2023-02-28T07:00:04;10.35;;;4.13;;
58470;SDS011;44258;51.288;12.068;2023-02-28T07:02:33;10.25;;;4.50;;
58470;SDS011;44258;51.288;12.068;2023-02-28T07:05:00;10.27;;;3.33;;
58470;SDS011;44258;51.288;12.068;2023-02-28T07:07:26;10.10;;;4.10;;
58470;SDS011;44258;51.288;12.068;2023-02-28T07:09:53;9.75;;;3.72;;
58470;SDS011;44258;51.288;12.068;2023-02-28T07:12:20;10.43;;;3.60;;
58470;SDS011;44258;51.288;12.068;2023-02-28T07:14:54;9.02;;;3.90;;
58470;SDS011;44258;51.288;12.068;2023-02-28T07:17:22;11.27;;;4.10;;
58470;SDS011;44258;51.288;12.068;2023-02-28T07:19:48;8.77;;;4.00;;
58470;SDS011;44258;51.288;12.068;2023-02-28T07:22:15;9.63;;;3.55;;
58470;SDS011;44258;51.288;12.068;2023-02-28T07:24:47;10.43;;;4.30;;
58470;SDS011;44258;51.288;12.068;2023-02-28T07:27:14;9.43;;;3.83;;
58470;SDS011;44258;51.288;12.068;2023-02-28T07:29:48;7.38;;;3.10;;
58470;SDS011;44258;51.288;12.068;2023-02-28T07:32:15;12.23;;;4.55;;
58470;SDS011;44258;51.288;12.068;2023-02-28T07:34:43;12.88;;;4.30;;
58470;SDS011;44258;51.288;12.068;2023-02-28T07:37:09;11.30;;;3.90;;
58470;SDS011;44258;51.288;12.068;2023-02-28T07:39:36;10.88;;;4.40;;
58470;SDS011;44258;51.288;12.068;2023-02-28T07:42:03;11.30;;;3.92;;
58470;SDS011;44258;51.288;12.068;2023-02-28T07:44:31;13.30;;;4.95;;
58470;SDS011;44258;51.288;12.068;2023-02-28T07:46:57;8.48;;;3.30;;
58470;SDS011;44258;51.288;12.068;2023-02-28T07:49:24;12.27;;;4.07;;
58470;SDS011;44258;51.288;12.068;2023-02-28T07:51:52;9.98;;;4.05;;
58470;SDS011;44258;51.288;12.068;2023-02-28T07:54:18;12.48;;;4.20;;
58470;SDS011;44258;51.288;12.068;2023-02-28T07:56:48;12.23;;;4.60;;
58470;SDS011;44258;51.288;12.068;2023-02-28T07:59:14;11.52;;;4.07;;
58470;SDS011;44258;51.288;12.068;2023-02-28T08:01:41;12.75;;;4.60;;
58470;SDS011;44258;51.288;12.068;2023-02-28T08:04:09;10.05;;;4.03;;
58470;SDS011;44258;51.288;12.068;2023-02-28T08:06:37;10.27;;;4.32;;
58470;SDS011;44258;51.288;12.068;2023-02-28T08:09:05;11.90;;;4.40;;
58470;SDS011;44258;51.288;12.068;2023-02-28T08:11:31;9.18;;;3.83;;
58470;SDS011;44258;51.288;12.068;2023-02-28T08:13:58;12.50;;;4.70;;
58470;SDS011;44258;51.288;12.068;2023-02-28T08:16:24;13.57;;;4.70;;
58470;SDS011;44258;51.288;12.068;2023-02-28T08:18:51;8.32;;;2.90;;
58470;SDS011;44258;51.288;12.068;2023-02-28T08:21:19;10.55;;;3.72;;
58470;SDS011;44258;51.288;12.068;2023-02-28T08:23:46;5.90;;;3.03;;
58470;SDS011;44258;51.288;12.068;2023-02-28T08:26:14;13.65;;;4.40;;
58470;SDS011;44258;51.288;12.068;2023-02-28T08:28:40;12.10;;;4.93;;
58470;SDS011;44258;51.288;12.068;2023-02-28T08:31:08;10.68;;;4.25;;
58470;SDS011;44258;51.288;12.068;2023-02-28T08:33:35;14.43;;;4.97;;
58470;SDS011;44258;51.288;12.068;2023-02-28T08:36:04;12.02;;;3.97;;
58470;SDS011;44258;51.288;12.068;2023-02-28T08:38:31;8.73;;;3.95;;
58470;SDS011;44258;51.288;12.068;2023-02-28T08:41:01;10.15;;;4.10;;
58470;SDS011;44258;51.288;12.068;2023-02-28T08:43:32;8.48;;;3.50;;
58470;SDS011;44258;51.288;12.068;2023-02-28T08:45:59;11.60;;;4.38;;
58470;SDS011;44258;51.288;12.068;2023-02-28T08:48:26;11.18;;;4.40;;
58470;SDS011;44258;51.288;12.068;2023-02-28T08:50:55;11.80;;;4.25;;
58470;SDS011;44258;51.288;12.068;2023-02-28T08:53:22;9.27;;;3.97;;
58470;SDS011;44258;51.288;12.068;2023-02-28T08:55:55;10.02;;;4.05;;
58470;SDS011;44258;51.288;12.068;2023-02-28T08:58:25;8.68;;;3.22;;
58470;SDS011;44258;51.288;12.068;2023-02-28T09:00:54;8.88;;;3.88;;
58470;SDS011;44258;51.288;12.068;2023-02-28T09:03:21;9.65;;;4.07;;
58470;SDS011;44258;51.288;12.068;2023-02-28T09:05:52;9.45;;;3.60;;
58470;SDS011;44258;51.288;12.068;2023-02-28T09:08:19;7.82;;;2.60;;
58470;SDS011;44258;51.288;12.068;2023-02-28T09:10:46;6.60;;;2.80;;
58470;SDS011;44258;51.288;12.068;2023-02-28T09:13:13;7.32;;;3.55;;
58470;SDS011;44258;51.288;12.068;2023-02-28T09:15:40;6.63;;;2.50;;
58470;SDS011;44258;51.288;12.068;2023-02-28T09:18:08;9.80;;;3.83;;
58470;SDS011;44258;51.288;12.068;2023-02-28T09:20:37;9.90;;;3.70;;
58470;SDS011;44258;51.288;12.068;2023-02-28T09:23:04;8.50;;;3.50;;
58470;SDS011;44258;51.288;12.068;2023-02-28T09:25:30;11.32;;;4.38;;
58470;SDS011;44258;51.288;12.068;2023-02-28T09:28:00;7.50;;;2.80;;
58470;SDS011;44258;51.288;12.068;2023-02-28T09:43:55;10.02;;;3.30;;
58470;SDS011;44258;51.288;12.068;2023-02-28T09:46:34;7.78;;;3.53;;
58470;SDS011;44258;51.288;12.068;2023-02-28T09:49:06;9.90;;;3.63;;
58470;SDS011;44258;51.288;12.068;2023-02-28T09:51:40;7.10;;;3.25;;
58470;SDS011;44258;51.288;12.068;2023-02-28T09:54:15;14.02;;;3.55;;
58470;SDS011;44258;51.288;12.068;2023-02-28T09:56:44;10.35;;;4.20;;
58470;SDS011;44258;51.288;12.068;2023-02-28T09:59:20;11.63;;;4.32;;
58470;SDS011;44258;51.288;12.068;2023-02-28T10:02:00;7.75;;;3.55;;
58470;SDS011;44258;51.288;12.068;2023-02-28T10:04:39;10.30;;;4.38;;
58470;SDS011;44258;51.288;12.068;2023-02-28T10:07:18;11.13;;;4.50;;
58470;SDS011;44258;51.288;12.068;2023-02-28T10:09:52;8.77;;;2.78;;
58470;SDS011;44258;51.288;12.068;2023-02-28T10:12:22;10.40;;;4.60;;
58470;SDS011;44258;51.288;12.068;2023-02-28T10:14:53;11.48;;;4.57;;
58470;SDS011;44258;51.288;12.068;2023-02-28T10:17:21;8.45;;;4.00;;
58470;SDS011;44258;51.288;12.068;2023-02-28T10:19:55;10.82;;;4.22;;
58470;SDS011;44258;51.288;12.068;2023-02-28T10:22:27;12.63;;;5.00;;
58470;SDS011;44258;51.288;12.068;2023-02-28T10:25:00;9.63;;;4.30;;
58470;SDS011;44258;51.288;12.068;2023-02-28T10:27:29;10.02;;;4.47;;
58470;SDS011;44258;51.288;12.068;2023-02-28T10:30:01;10.73;;;4.50;;
58470;SDS011;44258;51.288;12.068;2023-02-28T10:32:29;12.98;;;5.13;;
58470;SDS011;44258;51.288;12.068;2023-02-28T10:34:59;11.35;;;4.90;;
58470;SDS011;44258;51.288;12.068;2023-02-28T10:37:29;12.82;;;5.22;;
58470;SDS011;44258;51.288;12.068;2023-02-28T10:39:57;8.73;;;3.88;;
58470;SDS011;44258;51.288;12.068;2023-02-28T10:42:24;10.90;;;4.82;;
58470;SDS011;44258;51.288;12.068;2023-02-28T10:45:09;9.80;;;4.10;;
58470;SDS011;44258;51.288;12.068;2023-02-28T10:47:40;8.52;;;4.03;;
58470;SDS011;44258;51.288;12.068;2023-02-28T10:50:29;9.77;;;4.68;;
58470;SDS011;44258;51.288;12.068;2023-02-28T10:53:05;10.57;;;5.10;;
58470;SDS011;44258;51.288;12.068;2023-02-28T10:55:40;19.55;;;13.63;;
58470;SDS011;44258;51.288;12.068;2023-02-28T10:58:18;17.15;;;10.77;;
58470;SDS011;44258;51.288;12.068;2023-02-28T11:00:48;11.77;;;5.95;;
58470;SDS011;44258;51.288;12.068;2023-02-28T11:03:29;12.55;;;6.50;;
58470;SDS011;44258;51.288;12.068;2023-02-28T11:05:57;10.88;;;4.53;;
58470;SDS011;44258;51.288;12.068;2023-02-28T11:08:24;10.20;;;4.63;;
58470;SDS011;44258;51.288;12.068;2023-02-28T11:10:53;11.20;;;4.45;;
58470;SDS011;44258;51.288;12.068;2023-02-28T11:13:21;10.23;;;4.40;;
58470;SDS011;44258;51.288;12.068;2023-02-28T11:15:55;9.63;;;4.88;;
58470;SDS011;44258;51.288;12.068;2023-02-28T11:18:24;10.65;;;5.07;;
58470;SDS011;44258;51.288;12.068;2023-02-28T11:20:55;10.05;;;4.70;;
58470;SDS011;44258;51.288;12.068;2023-02-28T11:23:28;9.45;;;4.15;;
58470;SDS011;44258;51.288;12.068;2023-02-28T11:25:58;10.07;;;5.10;;
58470;SDS011;44258;51.288;12.068;2023-02-28T11:28:27;10.82;;;4.50;;
58470;SDS011;44258;51.288;12.068;2023-02-28T11:31:02;9.95;;;5.10;;
58470;SDS011;44258;51.288;12.068;2023-02-28T11:33:31;12.05;;;5.22;;
58470;SDS011;44258;51.288;12.068;2023-02-28T11:35:59;11.10;;;4.50;;
58470;SDS011;44258;51.288;12.068;2023-02-28T11:38:30;10.00;;;4.65;;
58470;SDS011;44258;51.288;12.068;2023-02-28T11:43:54;12.65;;;4.90;;
58470;SDS011;44258;51.288;12.068;2023-02-28T11:46:33;10.73;;;4.97;;
58470;SDS011;44258;51.288;12.068;2023-02-28T11:49:12;15.18;;;6.15;;
58470;SDS011;44258;51.288;12.068;2023-02-28T11:51:53;12.90;;;6.35;;
58470;SDS011;44258;51.288;12.068;2023-02-28T11:54:34;11.13;;;4.97;;
58470;SDS011;44258;51.288;12.068;2023-02-28T11:57:17;8.10;;;3.78;;
58470;SDS011;44258;51.288;12.068;2023-02-28T11:59:56;12.13;;;5.30;;
58470;SDS011;44258;51.288;12.068;2023-02-28T12:02:35;10.02;;;4.80;;
58470;SDS011;44258;51.288;12.068;2023-02-28T12:05:21;10.38;;;4.78;;
58470;SDS011;44258;51.288;12.068;2023-02-28T12:07:55;12.45;;;5.65;;
58470;SDS011;44258;51.288;12.068;2023-02-28T12:10:29;10.90;;;5.38;;
58470;SDS011;44258;51.288;12.068;2023-02-28T12:13:01;10.88;;;5.35;;
58470;SDS011;44258;51.288;12.068;2023-02-28T12:18:59;9.98;;;3.67;;
58470;SDS011;44258;51.288;12.068;2023-02-28T12:21:40;10.68;;;4.78;;
58470;SDS011;44258;51.288;12.068;2023-02-28T12:24:24;10.23;;;4.18;;
58470;SDS011;44258;51.288;12.068;2023-02-28T12:27:02;9.75;;;4.70;;
58470;SDS011;44258;51.288;12.068;2023-02-28T12:29:32;12.48;;;4.85;;
58470;SDS011;44258;51.288;12.068;2023-02-28T12:32:11;10.23;;;4.40;;
58470;SDS011;44258;51.288;12.068;2023-02-28T12:34:49;11.63;;;5.28;;
58470;SDS011;44258;51.288;12.068;2023-02-28T12:37:19;11.82;;;4.93;;
58470;SDS011;44258;51.288;12.068;2023-02-28T12:39:51;10.10;;;4.75;;
58470;SDS011;44258;51.288;12.068;2023-02-28T12:42:26;11.82;;;5.78;;
58470;SDS011;44258;51.288;12.068;2023-02-28T12:44:56;9.45;;;4.63;;
58470;SDS011;44258;51.288;12.068;2023-02-28T12:47:25;9.60;;;4.45;;
58470;SDS011;44258;51.288;12.068;2023-02-28T12:49:55;10.27;;;5.22;;
58470;SDS011;44258;51.288;12.068;2023-02-28T12:52:28;10.07;;;3.85;;
58470;SDS011;44258;51.288;12.068;2023-02-28T12:55:03;12.77;;;5.78;;
58470;SDS011;44258;51.288;12.068;2023-02-28T12:57:34;11.73;;;5.43;;
58470;SDS011;44258;51.288;12.068;2023-02-28T13:00:10;11.70;;;5.72;;
58470;SDS011;44258;51.288;12.068;2023-02-28T13:02:48;11.63;;;5.63;;
58470;SDS011;44258;51.288;12.068;2023-02-28T13:05:33;11.55;;;5.65;;
58470;SDS011;44258;51.288;12.068;2023-02-28T13:08:22;13.15;;;5.57;;
58470;SDS011;44258;51.288;12.068;2023-02-28T13:11:22;10.68;;;4.13;;
58470;SDS011;44258;51.288;12.068;2023-02-28T13:13:56;11.88;;;5.10;;
58470;SDS011;44258;51.288;12.068;2023-02-28T13:16:25;11.00;;;5.30;;
58470;SDS011;44258;51.288;12.068;2023-02-28T13:18:51;10.20;;;3.90;;
58470;SDS011;44258;51.288;12.068;2023-02-28T13:21:23;9.60;;;4.15;;
58470;SDS011;44258;51.288;12.068;2023-02-28T13:24:01;11.63;;;5.63;;
58470;SDS011;44258;51.288;12.068;2023-02-28T13:29:33;11.02;;;5.43;;
58470;SDS011;44258;51.288;12.068;2023-02-28T13:44:07;15.60;;;7.20;;
58470;SDS011;44258;51.288;12.068;2023-02-28T13:46:36;14.88;;;5.95;;
58470;SDS011;44258;51.288;12.068;2023-02-28T13:49:25;14.15;;;6.43;;
58470;SDS011;44258;51.288;12.068;2023-02-28T13:51:53;13.02;;;6.47;;
58470;SDS011;44258;51.288;12.068;2023-02-28T13:54:34;13.80;;;6.72;;
58470;SDS011;44258;51.288;12.068;2023-02-28T13:57:14;14.82;;;7.60;;
58470;SDS011;44258;51.288;12.068;2023-02-28T13:59:56;13.65;;;6.80;;
58470;SDS011;44258;51.288;12.068;2023-02-28T14:02:48;11.73;;;5.45;;
58470;SDS011;44258;51.288;12.068;2023-02-28T14:05:34;13.45;;;6.15;;
58470;SDS011;44258;51.288;12.068;2023-02-28T14:08:04;13.57;;;6.53;;
58470;SDS011;44258;51.288;12.068;2023-02-28T14:10:41;14.55;;;6.50;;
58470;SDS011;44258;51.288;12.068;2023-02-28T14:13:12;14.95;;;6.82;;
58470;SDS011;44258;51.288;12.068;2023-02-28T14:16:02;14.38;;;7.28;;
58470;SDS011;44258;51.288;12.068;2023-02-28T14:18:30;14.60;;;7.63;;
58470;SDS011;44258;51.288;12.068;2023-02-28T14:21:08;15.68;;;6.88;;
58470;SDS011;44258;51.288;12.068;2023-02-28T14:24:02;14.80;;;7.70;;
58470;SDS011;44258;51.288;12.068;2023-02-28T14:26:55;14.10;;;7.28;;
58470;SDS011;44258;51.288;12.068;2023-02-28T14:29:43;13.82;;;5.90;;
58470;SDS011;44258;51.288;12.068;2023-02-28T14:32:31;15.45;;;7.15;;
58470;SDS011;44258;51.288;12.068;2023-02-28T14:35:03;16.55;;;7.40;;
58470;SDS011;44258;51.288;12.068;2023-02-28T14:37:44;16.58;;;6.95;;
58470;SDS011;44258;51.288;12.068;2023-02-28T14:40:14;16.63;;;8.02;;
58470;SDS011;44258;51.288;12.068;2023-02-28T14:42:48;14.95;;;6.90;;
58470;SDS011;44258;51.288;12.068;2023-02-28T14:45:26;15.30;;;6.00;;
58470;SDS011;44258;51.288;12.068;2023-02-28T14:47:55;14.73;;;7.38;;
58470;SDS011;44258;51.288;12.068;2023-02-28T14:50:26;15.43;;;7.00;;
58470;SDS011;44258;51.288;12.068;2023-02-28T14:52:55;12.07;;;4.88;;
58470;SDS011;44258;51.288;12.068;2023-02-28T14:55:24;14.63;;;6.85;;
58470;SDS011;44258;51.288;12.068;2023-02-28T14:57:56;13.52;;;6.60;;
58470;SDS011;44258;51.288;12.068;2023-02-28T15:00:24;14.10;;;6.45;;
58470;SDS011;44258;51.288;12.068;2023-02-28T15:02:52;15.02;;;6.72;;
58470;SDS011;44258;51.288;12.068;2023-02-28T15:05:23;14.50;;;6.57;;
58470;SDS011;44258;51.288;12.068;2023-02-28T15:08:01;20.58;;;8.18;;
58470;SDS011;44258;51.288;12.068;2023-02-28T15:10:32;15.63;;;6.75;;
58470;SDS011;44258;51.288;12.068;2023-02-28T15:13:01;12.77;;;6.50;;
58470;SDS011;44258;51.288;12.068;2023-02-28T15:15:35;16.85;;;7.13;;
58470;SDS011;44258;51.288;12.068;2023-02-28T15:18:14;14.02;;;6.80;;
58470;SDS011;44258;51.288;12.068;2023-02-28T15:20:47;14.43;;;6.70;;
58470;SDS011;44258;51.288;12.068;2023-02-28T15:23:14;14.95;;;7.28;;
58470;SDS011;44258;51.288;12.068;2023-02-28T15:25:41;15.70;;;6.47;;
58470;SDS011;44258;51.288;12.068;2023-02-28T15:28:11;15.32;;;6.88;;
58470;SDS011;44258;51.288;12.068;2023-02-28T15:30:49;14.35;;;6.95;;
58470;SDS011;44258;51.288;12.068;2023-02-28T15:33:18;13.07;;;6.72;;
58470;SDS011;44258;51.288;12.068;2023-02-28T15:35:46;13.75;;;5.50;;
58470;SDS011;44258;51.288;12.068;2023-02-28T15:38:14;10.20;;;4.70;;